createdAt,value
2023-11-03T00:01:17.547Z,13.32
2023-11-03T00:03:44.903Z,13.36
2023-11-03T00:06:12.366Z,13.35
2023-11-03T00:08:39.622Z,13.34
2023-11-03T00:11:07.639Z,13.33
2023-11-03T00:13:35.529Z,13.39
2023-11-03T00:16:03.696Z,13.38
2023-11-03T00:18:32.536Z,13.37
2023-11-03T00:21:01.666Z,13.36
2023-11-03T00:23:28.933Z,13.33
2023-11-03T00:25:56.997Z,13.29
2023-11-03T00:28:24.636Z,13.17
2023-11-03T00:30:53.042Z,13.14
2023-11-03T00:33:21.304Z,13.09
2023-11-03T00:35:48.707Z,13.06
2023-11-03T00:38:17.185Z,13.03
2023-11-03T00:40:44.825Z,13.02
2023-11-03T00:43:12.286Z,13.04
2023-11-03T00:45:39.659Z,12.97
2023-11-03T00:48:07.509Z,12.96
2023-11-03T00:50:34.756Z,12.88
2023-11-03T00:53:02.050Z,12.92
2023-11-03T00:55:29.287Z,13.01
2023-11-03T00:57:56.748Z,13.10
2023-11-03T01:00:26.807Z,13.16
2023-11-03T01:02:54.166Z,13.22
2023-11-03T01:05:23.364Z,13.26
2023-11-03T01:07:50.900Z,13.14
2023-11-03T01:10:18.265Z,13.18
2023-11-03T01:12:51.381Z,13.12
2023-11-03T01:15:20.486Z,13.01
2023-11-03T01:17:51.700Z,13.03
2023-11-03T01:20:29.278Z,13.08
2023-11-03T01:22:57.311Z,13.16
2023-11-03T01:25:24.556Z,13.10
2023-11-03T01:27:53.231Z,13.08
2023-11-03T01:30:21.914Z,13.04
2023-11-03T01:32:54.295Z,12.94
2023-11-03T01:35:22.846Z,12.85
2023-11-03T01:37:50.317Z,12.84
2023-11-03T01:40:17.589Z,12.81
2023-11-03T01:42:45.122Z,12.86
2023-11-03T01:45:12.802Z,12.85
2023-11-03T01:47:40.021Z,12.80
2023-11-03T01:50:07.778Z,12.85
2023-11-03T01:52:36.375Z,12.82
2023-11-03T01:55:04.262Z,12.85
2023-11-03T01:57:31.989Z,12.85
2023-11-03T01:59:59.422Z,12.84
2023-11-03T02:02:30.297Z,12.79
2023-11-03T02:04:57.500Z,12.87
2023-11-03T02:07:31.401Z,12.83
2023-11-03T02:09:59.640Z,12.90
2023-11-03T02:12:27.492Z,12.89
2023-11-03T02:14:54.699Z,12.87
2023-11-03T02:17:22.983Z,12.96
2023-11-03T02:19:50.420Z,13.00
2023-11-03T02:22:17.686Z,12.97
2023-11-03T02:24:45.035Z,13.00
2023-11-03T02:27:12.980Z,12.94
2023-11-03T02:29:40.626Z,12.95
2023-11-03T02:32:07.982Z,12.94
2023-11-03T02:34:36.756Z,12.97
2023-11-03T02:37:04.803Z,13.02
2023-11-03T02:39:32.692Z,12.95
2023-11-03T02:42:00.961Z,12.90
2023-11-03T02:44:28.196Z,12.95
2023-11-03T02:46:58.708Z,12.88
2023-11-03T02:49:26.086Z,12.80
2023-11-03T02:51:54.237Z,12.74
2023-11-03T02:54:21.444Z,12.78
2023-11-03T02:56:48.873Z,12.77
2023-11-03T02:59:16.346Z,12.70
2023-11-03T03:01:44.662Z,12.64
2023-11-03T03:04:11.967Z,12.61
2023-11-03T03:06:43.224Z,12.60
2023-11-03T03:09:11.084Z,12.64
2023-11-03T03:11:38.393Z,12.49
2023-11-03T03:14:05.809Z,12.50
2023-11-03T03:16:33.149Z,12.50
2023-11-03T03:19:01.035Z,12.48
2023-11-03T03:21:28.319Z,12.44
2023-11-03T03:23:55.573Z,12.38
2023-11-03T03:26:24.194Z,12.40
2023-11-03T03:28:51.579Z,12.46
2023-11-03T03:31:19.192Z,12.47
2023-11-03T03:33:48.519Z,12.48
2023-11-03T03:36:17.082Z,12.42
2023-11-03T03:38:44.496Z,12.40
2023-11-03T03:41:13.032Z,12.41
2023-11-03T03:43:40.606Z,12.37
2023-11-03T03:46:08.090Z,12.29
2023-11-03T03:48:40.776Z,12.31
2023-11-03T03:51:09.106Z,12.32
2023-11-03T03:53:37.170Z,12.38
2023-11-03T03:56:04.787Z,12.36
2023-11-03T03:58:32.251Z,12.31
2023-11-03T04:00:59.742Z,12.38
2023-11-03T04:03:26.933Z,12.36
2023-11-03T04:05:54.227Z,12.35
2023-11-03T04:08:21.607Z,12.42
2023-11-03T04:10:48.926Z,12.38
2023-11-03T04:13:16.179Z,12.38
2023-11-03T04:15:43.544Z,12.32
2023-11-03T04:18:10.919Z,12.33
2023-11-03T04:20:39.902Z,12.42
2023-11-03T04:23:07.532Z,12.43
2023-11-03T04:25:34.765Z,12.40
2023-11-03T04:28:02.014Z,12.40
2023-11-03T04:30:29.231Z,12.38
2023-11-03T04:32:56.418Z,12.40
2023-11-03T04:35:23.637Z,12.44
2023-11-03T04:37:51.237Z,12.45
2023-11-03T04:40:20.868Z,12.35
2023-11-03T04:42:48.649Z,12.33
2023-11-03T04:45:17.022Z,12.29
2023-11-03T04:47:44.707Z,12.24
2023-11-03T04:50:12.304Z,12.24
2023-11-03T04:52:39.781Z,12.25
2023-11-03T04:55:10.625Z,12.26
2023-11-03T04:57:37.884Z,12.19
2023-11-03T05:00:10.354Z,12.17
2023-11-03T05:02:37.860Z,12.21
2023-11-03T05:05:08.646Z,12.21
2023-11-03T05:07:39.835Z,12.24
2023-11-03T05:10:07.639Z,12.22
2023-11-03T05:12:36.742Z,12.26
2023-11-03T05:15:04.604Z,12.25
2023-11-03T05:17:32.175Z,12.25
2023-11-03T05:19:59.319Z,12.25
2023-11-03T05:22:26.517Z,12.26
2023-11-03T05:24:54.254Z,12.19
2023-11-03T05:27:21.644Z,12.24
2023-11-03T05:29:48.865Z,12.23
2023-11-03T05:32:16.847Z,12.19
2023-11-03T05:34:44.141Z,12.20
2023-11-03T05:37:12.285Z,12.22
2023-11-03T05:39:39.644Z,12.28
2023-11-03T05:42:06.958Z,12.25
2023-11-03T05:44:34.677Z,12.28
2023-11-03T05:47:02.236Z,12.26
2023-11-03T05:49:29.613Z,12.21
2023-11-03T05:51:57.225Z,12.23
2023-11-03T05:54:24.813Z,12.22
2023-11-03T05:56:52.108Z,12.25
2023-11-03T05:59:19.319Z,12.21
2023-11-03T06:01:46.583Z,12.21
2023-11-03T06:04:16.008Z,12.16
2023-11-03T06:06:43.420Z,12.14
2023-11-03T06:09:12.979Z,12.17
2023-11-03T06:11:40.453Z,12.16
2023-11-03T06:14:07.791Z,12.16
2023-11-03T06:16:35.995Z,12.09
2023-11-03T06:19:03.398Z,12.20
2023-11-03T06:21:30.720Z,12.21
2023-11-03T06:23:57.968Z,12.25
2023-11-03T06:26:25.186Z,12.19
2023-11-03T06:28:53.873Z,12.21
2023-11-03T06:31:21.257Z,12.25
2023-11-03T06:33:48.700Z,12.26
2023-11-03T06:36:16.715Z,12.23
2023-11-03T06:38:44.312Z,12.30
2023-11-03T06:41:12.498Z,12.32
2023-11-03T06:43:42.171Z,12.29
2023-11-03T06:46:10.558Z,12.27
2023-11-03T06:48:38.345Z,12.28
2023-11-03T06:51:12.454Z,12.28
2023-11-03T06:53:39.778Z,12.32
2023-11-03T06:56:07.290Z,12.36
2023-11-03T06:58:34.685Z,12.41
2023-11-03T07:01:02.036Z,12.50
2023-11-03T07:03:29.451Z,12.51
2023-11-03T07:05:56.956Z,12.63
2023-11-03T07:08:24.417Z,12.58
2023-11-03T07:10:52.029Z,12.52
2023-11-03T07:13:19.305Z,12.67
2023-11-03T07:15:46.785Z,12.64
2023-11-03T07:18:14.131Z,12.57
2023-11-03T07:20:41.809Z,12.63
2023-11-03T07:23:09.194Z,12.64
2023-11-03T07:25:36.459Z,12.66
2023-11-03T07:28:03.837Z,12.55
2023-11-03T07:30:31.137Z,12.49
2023-11-03T07:32:59.107Z,12.41
2023-11-03T07:35:26.440Z,12.25
2023-11-03T07:37:53.689Z,12.18
2023-11-03T07:40:21.121Z,12.10
2023-11-03T07:42:48.508Z,12.03
2023-11-03T07:45:17.454Z,11.83
2023-11-03T07:47:44.867Z,11.82
2023-11-03T07:50:12.866Z,11.74
2023-11-03T07:52:40.228Z,11.78
2023-11-03T07:55:07.898Z,11.74
2023-11-03T07:57:35.250Z,11.71
2023-11-03T08:00:12.225Z,11.69
2023-11-03T08:02:42.688Z,11.70
2023-11-03T08:05:11.112Z,11.71
2023-11-03T08:07:38.584Z,11.78
2023-11-03T08:10:06.134Z,11.80
2023-11-03T08:12:36.833Z,11.79
2023-11-03T08:15:13.107Z,11.76
2023-11-03T08:17:45.560Z,11.80
2023-11-03T08:20:16.832Z,11.84
2023-11-03T08:22:44.405Z,11.77
2023-11-03T08:25:13.278Z,11.71
2023-11-03T08:27:40.680Z,11.75
2023-11-03T08:30:10.039Z,11.72
2023-11-03T08:32:37.829Z,11.65
2023-11-03T08:35:06.924Z,11.58
2023-11-03T08:37:34.536Z,11.50
2023-11-03T08:40:03.001Z,11.45
2023-11-03T08:42:31.653Z,11.42
2023-11-03T08:45:02.768Z,11.34
2023-11-03T08:47:34.675Z,11.26
2023-11-03T08:50:03.174Z,11.18
2023-11-03T08:52:32.528Z,11.15
2023-11-03T08:55:01.315Z,11.14
2023-11-03T08:57:36.650Z,11.19
2023-11-03T09:00:17.328Z,11.21
2023-11-03T09:02:48.520Z,11.25
2023-11-03T09:05:16.082Z,11.14
2023-11-03T09:07:44.400Z,11.12
2023-11-03T09:10:12.904Z,11.17
2023-11-03T09:12:42.153Z,11.20
2023-11-03T09:15:09.848Z,11.26
2023-11-03T09:17:37.840Z,11.27
2023-11-03T09:20:08.915Z,11.24
2023-11-03T09:22:38.838Z,11.26
2023-11-03T09:25:07.576Z,11.22
2023-11-03T09:27:35.306Z,11.22
2023-11-03T09:30:06.404Z,11.33
2023-11-03T09:32:34.369Z,11.33
2023-11-03T09:35:02.134Z,11.44
2023-11-03T09:37:29.782Z,11.54
2023-11-03T09:39:58.793Z,11.58
2023-11-03T09:42:26.086Z,11.50
2023-11-03T09:44:54.385Z,11.46
2023-11-03T09:47:21.771Z,11.41
2023-11-03T09:49:49.203Z,11.48
2023-11-03T09:52:16.674Z,11.53
2023-11-03T09:54:44.538Z,11.47
2023-11-03T09:57:13.041Z,11.58
2023-11-03T09:59:40.967Z,11.65
2023-11-03T10:02:20.005Z,11.68
2023-11-03T10:04:47.654Z,11.64
2023-11-03T10:07:15.124Z,11.67
2023-11-03T10:09:46.439Z,11.59
2023-11-03T10:12:19.268Z,11.52
2023-11-03T10:14:49.899Z,11.47
2023-11-03T10:17:18.185Z,11.54
2023-11-03T10:19:46.999Z,11.63
2023-11-03T10:22:14.362Z,11.64
2023-11-03T10:24:41.912Z,11.57
2023-11-03T10:27:13.260Z,11.34
2023-11-03T10:29:41.388Z,11.21
2023-11-03T10:32:10.485Z,11.08
2023-11-03T10:34:38.912Z,11.15
2023-11-03T10:37:07.053Z,11.13
2023-11-03T10:39:34.461Z,11.06
2023-11-03T10:42:03.697Z,11.08
2023-11-03T10:44:31.811Z,11.11
2023-11-03T10:47:11.328Z,11.05
2023-11-03T10:49:39.397Z,11.10
2023-11-03T10:52:11.871Z,11.08
2023-11-03T10:55:05.050Z,11.03
2023-11-03T10:57:39.744Z,11.01
2023-11-03T11:00:18.659Z,11.05
2023-11-03T11:03:04.407Z,10.99
2023-11-03T11:05:39.497Z,10.93
2023-11-03T11:08:08.433Z,10.77
2023-11-03T11:10:36.439Z,10.73
2023-11-03T11:13:06.004Z,10.72
2023-11-03T11:15:33.305Z,10.70
2023-11-03T11:18:30.956Z,10.69
2023-11-03T11:21:07.034Z,10.68
2023-11-03T11:23:39.475Z,10.77
2023-11-03T11:28:53.992Z,10.56
2023-11-03T11:31:25.406Z,10.64
2023-11-03T11:34:04.214Z,10.63
2023-11-03T11:36:33.262Z,10.65
2023-11-03T11:39:02.149Z,10.71
2023-11-03T11:41:32.190Z,10.68
2023-11-03T11:44:01.175Z,10.70
2023-11-03T11:46:32.566Z,10.79
2023-11-03T11:49:05.666Z,10.77
2023-11-03T11:51:34.877Z,10.84
2023-11-03T11:54:03.336Z,10.97
2023-11-03T11:56:30.612Z,11.01
2023-11-03T11:58:58.553Z,11.10
2023-11-03T12:01:25.835Z,11.22
2023-11-03T12:03:53.785Z,11.27
2023-11-03T12:06:21.324Z,11.32
2023-11-03T12:08:48.689Z,11.44
2023-11-03T12:11:21.845Z,11.44
2023-11-03T12:13:49.025Z,11.51
2023-11-03T12:16:16.263Z,11.56
2023-11-03T12:18:43.733Z,11.51
2023-11-03T12:21:29.014Z,11.43
2023-11-03T12:24:00.015Z,11.42
2023-11-03T12:26:27.909Z,11.35
2023-11-03T12:29:16.955Z,11.39
2023-11-03T12:31:44.404Z,11.64
2023-11-03T12:34:15.055Z,11.88
2023-11-03T12:36:42.520Z,11.98
2023-11-03T12:39:12.300Z,12.06
2023-11-03T12:42:23.931Z,12.05
2023-11-03T12:44:54.137Z,12.05
2023-11-03T12:47:40.466Z,12.06
2023-11-03T12:50:15.092Z,12.12
2023-11-03T12:52:42.356Z,12.24
2023-11-03T12:55:10.245Z,12.30
2023-11-03T12:57:38.146Z,12.44
2023-11-03T13:00:08.888Z,12.51
2023-11-03T13:02:36.376Z,12.51
2023-11-03T13:05:05.311Z,12.50
2023-11-03T13:07:32.922Z,12.57
2023-11-03T13:10:00.315Z,12.57
2023-11-03T13:12:29.704Z,12.57
2023-11-03T13:14:59.109Z,12.63
2023-11-03T13:17:26.296Z,12.64
2023-11-03T13:19:55.130Z,12.77
2023-11-03T13:22:22.393Z,12.80
2023-11-03T13:24:49.634Z,12.77
2023-11-03T13:27:17.409Z,12.76
2023-11-03T13:29:44.644Z,12.80
2023-11-03T13:32:12.338Z,12.88
2023-11-03T13:34:42.673Z,12.88
2023-11-03T13:37:13.114Z,12.91
2023-11-03T13:39:40.492Z,12.95
2023-11-03T13:42:08.737Z,13.00
2023-11-03T13:44:37.323Z,12.99
2023-11-03T13:47:04.699Z,13.01
2023-11-03T13:49:39.947Z,13.01
2023-11-03T13:52:08.856Z,13.03
2023-11-03T13:54:36.035Z,13.00
2023-11-03T13:57:03.641Z,13.02
2023-11-03T13:59:30.812Z,13.01
2023-11-03T14:01:58.493Z,13.08
2023-11-03T14:04:28.163Z,13.06
2023-11-03T14:06:55.472Z,13.00
2023-11-03T14:09:26.409Z,12.92
2023-11-03T14:11:56.710Z,12.88
2023-11-03T14:14:26.124Z,12.83
2023-11-03T14:16:53.470Z,12.86
2023-11-03T14:19:20.741Z,12.84
2023-11-03T14:21:50.877Z,12.86
2023-11-03T14:24:18.178Z,12.87
2023-11-03T14:26:46.986Z,12.88
2023-11-03T14:29:17.613Z,12.83
2023-11-03T14:31:45.511Z,12.81
2023-11-03T14:34:30.524Z,12.76
2023-11-03T14:36:57.853Z,12.70
2023-11-03T14:39:25.344Z,12.65
2023-11-03T14:41:55.009Z,12.58
2023-11-03T14:44:28.841Z,12.54
2023-11-03T14:47:01.826Z,12.49
2023-11-03T14:49:29.091Z,12.43
2023-11-03T14:52:14.565Z,12.41
2023-11-03T14:54:47.246Z,12.39
2023-11-03T14:57:19.031Z,12.36
2023-11-03T14:59:46.271Z,12.30
2023-11-03T15:02:13.642Z,12.29
2023-11-03T15:04:40.939Z,12.31
2023-11-03T15:07:09.583Z,12.36
2023-11-03T15:09:38.378Z,12.42
2023-11-03T15:12:05.974Z,12.45
2023-11-03T15:14:33.297Z,12.47
2023-11-03T15:17:00.517Z,12.47
2023-11-03T15:19:32.550Z,12.43
2023-11-03T15:22:07.847Z,12.46
2023-11-03T15:24:35.178Z,12.45
2023-11-03T15:27:02.444Z,12.42
2023-11-03T15:29:31.117Z,12.43
2023-11-03T15:32:04.626Z,12.37
2023-11-03T15:34:34.033Z,12.38
2023-11-03T15:37:01.701Z,12.33
2023-11-03T15:39:33.176Z,12.28
2023-11-03T15:42:01.699Z,12.28
2023-11-03T15:44:31.280Z,12.09
2023-11-03T15:46:58.736Z,12.09
2023-11-03T15:49:30.570Z,12.10
2023-11-03T15:51:59.471Z,12.09
2023-11-03T15:54:29.895Z,12.08
2023-11-03T15:57:01.578Z,12.01
2023-11-03T15:59:28.922Z,12.00
2023-11-03T16:01:56.104Z,11.97
2023-11-03T16:04:25.298Z,11.95
2023-11-03T16:06:52.931Z,11.88
2023-11-03T16:09:22.776Z,11.81
2023-11-03T16:11:52.551Z,11.76
2023-11-03T16:14:19.885Z,11.72
2023-11-03T16:16:47.080Z,11.70
2023-11-03T16:19:14.720Z,11.58
2023-11-03T16:21:42.414Z,11.54
2023-11-03T16:24:10.734Z,11.58
2023-11-03T16:26:38.021Z,11.54
2023-11-03T16:29:07.231Z,11.50
2023-11-03T16:31:34.435Z,11.41
2023-11-03T16:34:02.821Z,11.40
2023-11-03T16:36:30.529Z,11.41
2023-11-03T16:38:58.325Z,11.47
2023-11-03T16:41:28.111Z,11.39
2023-11-03T16:43:55.483Z,11.35
2023-11-03T16:46:28.203Z,11.21
2023-11-03T16:48:55.662Z,11.21
2023-11-03T16:51:34.377Z,11.03
2023-11-03T16:54:01.874Z,11.09
2023-11-03T16:56:29.412Z,11.13
2023-11-03T16:58:56.721Z,11.10
2023-11-03T17:01:24.468Z,10.92
2023-11-03T17:03:52.184Z,10.88
2023-11-03T17:06:19.596Z,10.81
2023-11-03T17:08:50.811Z,10.84
2023-11-03T17:11:30.822Z,10.82
2023-11-03T17:13:58.311Z,10.61
2023-11-03T17:16:28.687Z,10.72
2023-11-03T17:18:56.135Z,10.76
2023-11-03T17:21:26.126Z,10.77
2023-11-03T17:23:56.386Z,10.82
2023-11-03T17:26:24.665Z,10.86
2023-11-03T17:28:52.831Z,10.89
2023-11-03T17:31:20.915Z,10.85
2023-11-03T17:33:49.117Z,10.84
2023-11-03T17:36:16.621Z,10.78
2023-11-03T17:38:43.889Z,10.72
2023-11-03T17:41:11.320Z,10.77
2023-11-03T17:43:38.552Z,10.68
2023-11-03T17:46:06.443Z,10.51
2023-11-03T17:48:35.338Z,10.40
2023-11-03T17:51:05.522Z,10.22
2023-11-03T17:53:34.839Z,10.25
2023-11-03T17:56:03.311Z,10.33
2023-11-03T17:58:30.675Z,10.26
2023-11-03T18:00:59.463Z,10.14
2023-11-03T18:03:27.996Z,10.21
2023-11-03T18:05:55.372Z,10.23
2023-11-03T18:08:22.749Z,10.20
2023-11-03T18:10:50.155Z,10.17
2023-11-03T18:13:17.577Z,10.20
2023-11-03T18:15:44.878Z,10.18
2023-11-03T18:18:12.219Z,10.15
2023-11-03T18:20:41.606Z,10.12
2023-11-03T18:23:09.086Z,10.01
2023-11-03T18:25:37.006Z,10.02
2023-11-03T18:28:04.578Z,10.08
2023-11-03T18:30:33.935Z,10.13
2023-11-03T18:33:02.109Z,10.17
2023-11-03T18:35:29.528Z,10.23
2023-11-03T18:37:57.150Z,10.32
2023-11-03T18:40:28.352Z,10.08
2023-11-03T18:42:56.064Z,9.83
2023-11-03T18:45:24.688Z,9.77
2023-11-03T18:47:52.004Z,9.83
2023-11-03T18:52:52.125Z,9.81
2023-11-03T18:56:14.137Z,9.75
2023-11-03T18:58:47.668Z,9.73
2023-11-03T19:02:09.170Z,9.80
2023-11-03T19:08:42.331Z,9.60
2023-11-03T19:11:09.882Z,9.58
2023-11-03T19:13:37.023Z,9.53
2023-11-03T19:16:04.741Z,9.62
2023-11-03T19:18:37.498Z,9.62
2023-11-03T19:21:06.053Z,9.51
2023-11-03T19:23:35.765Z,9.38
2023-11-03T19:26:03.160Z,9.37
2023-11-03T19:28:33.275Z,9.47
2023-11-03T19:31:03.632Z,9.47
2023-11-03T19:33:32.582Z,9.42
2023-11-03T19:36:01.076Z,9.28
2023-11-03T19:38:28.611Z,9.35
2023-11-03T19:40:56.619Z,9.30
2023-11-03T19:43:24.103Z,9.26
2023-11-03T19:45:51.505Z,9.23
2023-11-03T19:48:19.100Z,9.27
2023-11-03T19:50:47.193Z,9.43
2023-11-03T19:53:17.097Z,9.51
2023-11-03T19:55:45.572Z,9.55
2023-11-03T19:58:13.929Z,9.55
2023-11-03T20:00:43.999Z,9.38
2023-11-03T20:03:11.390Z,9.22
2023-11-03T20:05:39.663Z,9.24
2023-11-03T20:08:10.201Z,9.12
2023-11-03T20:10:37.729Z,9.08
2023-11-03T20:13:05.423Z,9.17
2023-11-03T20:15:33.165Z,9.30
2023-11-03T20:18:01.270Z,9.40
2023-11-03T20:20:29.332Z,9.40
2023-11-03T20:22:57.805Z,9.27
2023-11-03T20:25:31.132Z,9.12
2023-11-03T20:27:59.211Z,9.05
2023-11-03T20:30:26.461Z,9.10
2023-11-03T20:32:54.758Z,9.15
2023-11-03T20:35:23.170Z,9.08
2023-11-03T20:37:50.568Z,8.99
2023-11-03T20:40:18.471Z,9.05
2023-11-03T20:42:45.759Z,9.12
2023-11-03T20:45:15.458Z,9.08
2023-11-03T20:47:48.093Z,9.03
2023-11-03T20:50:19.003Z,9.11
2023-11-03T20:52:46.144Z,9.13
2023-11-03T20:55:13.992Z,9.11
2023-11-03T20:57:42.386Z,8.92
2023-11-03T21:00:10.604Z,8.87
2023-11-03T21:02:38.649Z,8.83
2023-11-03T21:05:06.543Z,8.87
2023-11-03T21:07:34.400Z,8.98
2023-11-03T21:10:02.232Z,8.91
2023-11-03T21:12:32.830Z,8.72
2023-11-03T21:15:00.194Z,8.57
2023-11-03T21:17:27.633Z,8.49
2023-11-03T21:19:55.933Z,8.45
2023-11-03T21:22:23.234Z,8.54
2023-11-03T21:24:50.739Z,8.68
2023-11-03T21:27:18.126Z,8.59
2023-11-03T21:29:45.372Z,8.49
2023-11-03T21:32:12.556Z,8.39
2023-11-03T21:34:40.199Z,8.43
2023-11-03T21:37:07.569Z,8.51
2023-11-03T21:39:34.935Z,8.38
2023-11-03T21:42:02.180Z,8.27
2023-11-03T21:44:30.539Z,8.04
2023-11-03T21:46:58.053Z,8.08
2023-11-03T21:49:26.127Z,8.17
2023-11-03T21:51:55.252Z,8.23
2023-11-03T21:54:22.401Z,8.24
2023-11-03T21:56:49.649Z,8.20
2023-11-03T21:59:17.303Z,8.20
2023-11-03T22:01:45.046Z,8.21
2023-11-03T22:04:12.316Z,8.24
2023-11-03T22:06:39.745Z,8.20
2023-11-03T22:09:09.924Z,8.32
2023-11-03T22:11:37.950Z,8.45
2023-11-03T22:14:05.275Z,8.26
2023-11-03T22:16:32.784Z,8.29
2023-11-03T22:19:00.188Z,8.40
2023-11-03T22:21:27.497Z,8.20
2023-11-03T22:23:55.641Z,8.22
2023-11-03T22:26:32.374Z,8.10
2023-11-03T22:29:04.319Z,8.29
2023-11-03T22:31:31.630Z,8.45
2023-11-03T22:33:59.508Z,8.40
2023-11-03T22:36:28.022Z,8.42
2023-11-03T22:38:55.310Z,8.37
2023-11-03T22:41:23.749Z,8.10
2023-11-03T22:43:52.153Z,8.22
2023-11-03T22:46:19.376Z,8.24
2023-11-03T22:48:46.840Z,8.08
2023-11-03T22:51:16.112Z,8.14
2023-11-03T22:53:47.817Z,7.96
2023-11-03T22:56:33.540Z,7.89
2023-11-03T22:59:02.279Z,7.85
2023-11-03T23:01:29.586Z,7.95
2023-11-03T23:03:57.185Z,7.79
2023-11-03T23:06:25.010Z,7.73
2023-11-03T23:08:52.341Z,8.01
2023-11-03T23:11:20.032Z,8.03
2023-11-03T23:13:49.031Z,8.06
2023-11-03T23:16:16.319Z,8.00
2023-11-03T23:18:43.879Z,7.99
2023-11-03T23:21:12.991Z,7.77
2023-11-03T23:23:41.483Z,7.86
2023-11-03T23:26:08.715Z,7.90
2023-11-03T23:28:35.930Z,7.91
2023-11-03T23:31:03.294Z,7.84
2023-11-03T23:33:32.671Z,7.87
2023-11-03T23:36:00.258Z,7.62
2023-11-03T23:38:27.575Z,7.70
2023-11-03T23:40:54.837Z,7.73
2023-11-03T23:43:22.132Z,7.81
2023-11-03T23:45:49.715Z,7.68
2023-11-03T23:48:21.221Z,7.64
2023-11-03T23:50:48.983Z,7.69
2023-11-03T23:53:16.228Z,7.70
2023-11-03T23:55:43.495Z,7.62
2023-11-03T23:58:10.785Z,7.67
